Time;durP1;ratioP1;P1;durP2;ratioP2;P2;SDS_P1;SDS_P2;PMS_P1;PMS_P2;Temp;Humidity;BMP_temperature;BMP_pressure;BME280_temperature;BME280_humidity;BME280_pressure;Samples;Min_cycle;Max_cycle;Signal;HPM_P1;HPM_P2
2022/03/20 00:00:33;;;;;;;131.73;75.45;;;26.20;2201.60;;;;;;4903124;29;20080;-84
2022/03/20 00:03:03;;;;;;;128.80;75.63;;;26.10;2201.60;;;;;;4903304;29;20028;-84
2022/03/20 00:05:29;;;;;;;140.98;81.85;;;26.00;2201.60;;;;;;4903148;29;20029;-86
2022/03/20 00:07:55;;;;;;;129.35;75.95;;;25.90;2201.60;;;;;;4903384;29;20031;-83
2022/03/20 00:10:20;;;;;;;136.80;82.28;;;26.10;2201.60;;;;;;4903292;29;20526;-84
2022/03/20 00:12:46;;;;;;;140.98;81.05;;;26.10;2201.60;;;;;;4903262;29;20486;-86
2022/03/20 00:15:12;;;;;;;159.05;91.25;;;26.10;2201.60;;;;;;4903365;29;20394;-84
2022/03/20 00:17:38;;;;;;;159.40;80.38;;;26.20;2201.60;;;;;;4903008;29;20036;-84
2022/03/20 00:20:07;;;;;;;126.90;66.82;;;26.20;2201.60;;;;;;4902955;29;20034;-85
2022/03/20 00:22:34;;;;;;;94.78;49.65;;;51.30;2227.20;;;;;;4903157;29;20024;-84
2022/03/20 00:25:00;;;;;;;148.48;74.07;;;26.10;2176.00;;;;;;4903270;29;20021;-84
2022/03/20 00:27:26;;;;;;;145.05;77.35;;;51.20;2176.00;;;;;;4902732;29;20028;-83
2022/03/20 00:29:53;;;;;;;141.70;83.75;;;26.00;2150.40;;;;;;4902513;29;20359;-84
2022/03/20 00:32:19;;;;;;;168.40;96.95;;;26.10;2150.40;;;;;;4902882;29;20024;-85
2022/03/20 00:34:45;;;;;;;75.68;41.38;;;26.10;2150.40;;;;;;4902719;29;20020;-85
2022/03/20 00:37:11;;;;;;;64.55;30.05;;;26.00;2150.40;;;;;;4902770;29;20024;-83
2022/03/20 00:39:38;;;;;;;124.28;64.45;;;26.00;2124.80;;;;;;4902488;29;20150;-84
2022/03/20 00:42:05;;;;;;;109.28;59.20;;;26.00;2176.00;;;;;;4902640;29;20111;-85
2022/03/20 00:44:31;;;;;;;116.47;64.68;;;26.00;2201.60;;;;;;4902612;29;20026;-86
2022/03/20 00:46:57;;;;;;;89.63;50.15;;;26.10;2201.60;;;;;;4902305;29;20027;-82
2022/03/20 00:49:23;;;;;;;92.05;53.30;;;26.00;2201.60;;;;;;4902389;29;20115;-83
2022/03/20 00:51:49;;;;;;;142.25;77.47;;;26.00;2201.60;;;;;;4902311;29;20095;-84
2022/03/20 00:54:15;;;;;;;116.85;65.18;;;25.80;2201.60;;;;;;4902316;29;20458;-85
2022/03/20 00:56:41;;;;;;;119.50;61.30;;;25.80;2201.60;;;;;;4902374;29;20028;-84
2022/03/20 00:59:07;;;;;;;84.78;47.78;;;0.90;2201.60;;;;;;4901748;29;20035;-85
2022/03/20 01:01:36;;;;;;;79.25;47.40;;;0.70;2201.60;;;;;;4901966;29;20484;-85
2022/03/20 01:04:02;;;;;;;96.55;54.55;;;0.40;2201.60;;;;;;4902350;29;20032;-84
2022/03/20 01:06:31;;;;;;;99.20;53.92;;;25.60;2201.60;;;;;;4902145;29;20078;-85
2022/03/20 01:08:59;;;;;;;109.82;58.97;;;25.70;2201.60;;;;;;4901815;29;20024;-83
2022/03/20 01:11:25;;;;;;;98.72;53.03;;;25.60;2201.60;;;;;;4902044;29;20431;-85
2022/03/20 01:13:54;;;;;;;82.10;44.20;;;25.60;2201.60;;;;;;4901732;29;20122;-84
2022/03/20 01:16:20;;;;;;;83.43;47.67;;;0.90;2201.60;;;;;;4901531;29;20110;-85
2022/03/20 01:18:46;;;;;;;102.40;57.72;;;0.80;2201.60;;;;;;4901563;29;20148;-84
2022/03/20 01:21:15;;;;;;;71.95;39.90;;;0.60;2201.60;;;;;;4901799;29;20020;-84
2022/03/20 01:23:41;;;;;;;77.47;40.22;;;0.30;2201.60;;;;;;4901352;29;20053;-84
2022/03/20 01:26:12;;;;;;;72.78;41.35;;;0.40;2201.60;;;;;;4901778;29;20064;-86
2022/03/20 01:28:38;;;;;;;71.47;38.00;;;0.40;2201.60;;;;;;4901540;29;20467;-82
2022/03/20 01:31:04;;;;;;;77.30;43.13;;;0.10;2201.60;;;;;;4901549;29;20074;-82
2022/03/20 01:33:30;;;;;;;83.20;47.53;;;0.00;2201.60;;;;;;4901614;29;20024;-83
2022/03/20 01:35:56;;;;;;;100.72;52.40;;;0.30;2201.60;;;;;;4901215;29;20079;-83
2022/03/20 01:38:22;;;;;;;116.30;60.05;;;0.40;2201.60;;;;;;4901448;29;20035;-85
2022/03/20 01:40:49;;;;;;;100.68;47.95;;;0.60;2201.60;;;;;;4901393;29;20020;-83
2022/03/20 01:43:15;;;;;;;91.95;48.88;;;0.50;2201.60;;;;;;4901337;29;20024;-82
2022/03/20 01:45:42;;;;;;;79.95;43.05;;;0.50;2201.60;;;;;;4901064;29;20040;-81
2022/03/20 01:48:07;;;;;;;68.63;40.95;;;0.50;2201.60;;;;;;4901663;29;20398;-81
2022/03/20 01:50:33;;;;;;;74.07;41.22;;;0.60;2201.60;;;;;;4897818;29;20045;-85
2022/03/20 01:53:00;;;;;;;64.20;37.17;;;0.40;2201.60;;;;;;4898374;29;20032;-83
2022/03/20 01:55:28;;;;;;;74.03;40.05;;;0.80;2201.60;;;;;;4903762;29;20034;-83
2022/03/20 01:57:56;;;;;;;70.63;40.85;;;0.30;2201.60;;;;;;4902719;29;20024;-84
2022/03/20 02:00:25;;;;;;;64.07;36.17;;;0.00;2201.60;;;;;;4898166;29;20483;-83
2022/03/20 02:02:52;;;;;;;63.58;37.78;;;13.10;2201.60;;;;;;4898046;29;20028;-81
2022/03/20 02:05:19;;;;;;;60.08;33.45;;;13.10;2201.60;;;;;;4897776;29;20114;-79
2022/03/20 02:07:47;;;;;;;61.47;32.63;;;;;;;;;;4897980;29;20036;-85
2022/03/20 02:10:14;;;;;;;72.63;38.05;;;13.40;2201.60;;;;;;4897067;29;20108;-83
2022/03/20 02:12:41;;;;;;;81.18;43.97;;;13.10;2201.60;;;;;;4897171;29;20020;-82
2022/03/20 02:15:10;;;;;;;88.25;46.22;;;13.10;2201.60;;;;;;4897747;29;20455;-82
2022/03/20 02:17:38;;;;;;;95.95;50.80;;;13.00;2201.60;;;;;;4897559;29;20039;-84
2022/03/20 02:20:08;;;;;;;118.78;57.03;;;13.10;2201.60;;;;;;4898089;29;20494;-82
2022/03/20 02:22:37;;;;;;;98.05;52.30;;;;;;;;;;4897843;29;20024;-84
2022/03/20 02:25:08;;;;;;;77.05;43.38;;;0.30;2201.60;;;;;;4897598;29;20017;-84
2022/03/20 02:27:38;;;;;;;64.13;38.25;;;0.10;2201.60;;;;;;4914644;29;20020;-81
2022/03/20 02:30:12;;;;;;;71.40;39.47;;;0.00;2201.60;;;;;;4913314;29;20025;-83
2022/03/20 02:32:44;;;;;;;81.75;43.00;;;0.10;2201.60;;;;;;4898215;29;20467;-83
2022/03/20 02:35:13;;;;;;;91.07;49.40;;;0.30;2201.60;;;;;;4897843;29;20055;-82
2022/03/20 02:37:51;;;;;;;67.22;36.85;;;0.10;2201.60;;;;;;4897659;29;20036;-82
2022/03/20 02:40:20;;;;;;;64.85;34.97;;;13.10;2201.60;;;;;;4897505;29;20024;-84
2022/03/20 02:42:48;;;;;;;66.70;37.53;;;13.00;2201.60;;;;;;4897712;29;20039;-84
2022/03/20 02:45:29;;;;;;;53.58;31.80;;;13.10;2201.60;;;;;;4897733;29;20470;-81
2022/03/20 02:47:57;;;;;;;54.22;29.98;;;13.40;2201.60;;;;;;4897265;29;20032;-83
2022/03/20 02:50:29;;;;;;;52.00;30.25;;;13.40;2201.60;;;;;;4897247;29;20068;-79
2022/03/20 02:53:12;;;;;;;50.20;25.27;;;13.30;2201.60;;;;;;4897002;29;20023;-79
2022/03/20 02:55:40;;;;;;;50.22;24.27;;;13.40;2201.60;;;;;;4897796;29;20021;-79
2022/03/20 02:58:14;;;;;;;57.55;30.35;;;13.50;2201.60;;;;;;4897369;29;20371;-80
2022/03/20 03:00:41;;;;;;;70.25;37.85;;;13.50;2201.60;;;;;;4897016;29;20021;-80
2022/03/20 03:03:11;;;;;;;74.15;39.42;;;13.60;2201.60;;;;;;4897442;29;20425;-79
2022/03/20 03:05:38;;;;;;;66.95;37.28;;;13.40;2201.60;;;;;;4897264;29;20032;-83
2022/03/20 03:11:01;;;;;;;74.63;39.50;;;13.30;2201.60;;;;;;4898585;29;20059;-82
2022/03/20 03:13:28;;;;;;;79.60;42.03;;;13.20;2201.60;;;;;;4897130;29;20021;-83
2022/03/20 03:15:56;;;;;;;72.45;39.88;;;13.50;2201.60;;;;;;4897277;29;20081;-81
2022/03/20 03:18:23;;;;;;;57.22;35.13;;;13.50;2201.60;;;;;;4896981;29;20494;-82
2022/03/20 03:20:50;;;;;;;49.40;26.10;;;13.10;2201.60;;;;;;4897530;29;20052;-83
2022/03/20 03:23:17;;;;;;;47.50;25.73;;;13.40;2201.60;;;;;;4901075;29;20047;-80
2022/03/20 03:25:43;;;;;;;37.28;23.73;;;13.50;2201.60;;;;;;4900888;29;20043;-84
2022/03/20 03:28:10;;;;;;;40.67;23.80;;;13.70;2201.60;;;;;;4900415;29;20024;-83
2022/03/20 03:30:41;;;;;;;48.75;28.02;;;13.70;2201.60;;;;;;4900666;29;20028;-82
2022/03/20 03:33:07;;;;;;;56.72;28.52;;;13.60;2201.60;;;;;;4900910;29;20076;-82
2022/03/20 03:35:42;;;;;;;55.85;30.27;;;13.70;2201.60;;;;;;4900351;29;20024;-80
2022/03/20 03:38:13;;;;;;;59.40;33.30;;;13.70;2201.60;;;;;;4900632;29;20025;-82
2022/03/20 03:40:40;;;;;;;53.08;31.10;;;13.70;2201.60;;;;;;4900590;29;20025;-83
2022/03/20 03:43:07;;;;;;;61.58;33.65;;;38.40;2201.60;;;;;;4900276;29;20028;-84
2022/03/20 03:45:33;;;;;;;64.22;33.72;;;13.70;2201.60;;;;;;4884661;29;20061;-83
2022/03/20 03:48:00;;;;;;;66.28;35.83;;;13.60;2201.60;;;;;;4900407;29;20021;-82
2022/03/20 03:50:26;;;;;;;61.67;33.13;;;13.60;2201.60;;;;;;4899762;29;20047;-84
2022/03/20 03:52:52;;;;;;;56.28;29.63;;;13.60;2201.60;;;;;;4900309;29;20086;-84
2022/03/20 03:55:18;;;;;;;77.03;39.70;;;13.60;2201.60;;;;;;4899963;29;20052;-82
2022/03/20 03:57:50;;;;;;;59.85;34.35;;;13.40;2201.60;;;;;;4899684;29;20040;-82
2022/03/20 04:00:18;;;;;;;60.08;33.30;;;13.40;2201.60;;;;;;4884368;29;20029;-83
2022/03/20 04:02:44;;;;;;;65.53;37.20;;;38.50;2201.60;;;;;;4899611;29;20021;-84
2022/03/20 04:05:10;;;;;;;63.60;36.03;;;38.70;2201.60;;;;;;4900205;29;20020;-81
2022/03/20 04:07:37;;;;;;;73.28;39.38;;;38.60;2201.60;;;;;;4899760;29;20032;-81
2022/03/20 04:10:07;;;;;;;74.68;39.60;;;38.60;2201.60;;;;;;4899812;29;20047;-83
2022/03/20 04:12:37;;;;;;;58.30;32.60;;;38.60;2201.60;;;;;;4899984;29;20024;-82
2022/03/20 04:15:04;;;;;;;59.80;35.42;;;38.90;2201.60;;;;;;4899758;29;20024;-79
2022/03/20 04:17:31;;;;;;;61.17;35.50;;;38.80;2201.60;;;;;;4899347;29;20102;-81
2022/03/20 04:19:58;;;;;;;100.88;50.55;;;38.60;2201.60;;;;;;4899853;29;20024;-81
2022/03/20 04:22:28;;;;;;;74.00;36.63;;;38.60;2201.60;;;;;;4899780;29;20052;-82
2022/03/20 04:24:55;;;;;;;48.15;27.83;;;38.80;2201.60;;;;;;4899269;29;20028;-81
2022/03/20 04:27:22;;;;;;;66.90;35.83;;;38.80;2201.60;;;;;;4900723;29;20072;-77
2022/03/20 04:29:48;;;;;;;71.00;36.60;;;38.80;2201.60;;;;;;4900665;29;20076;-79
2022/03/20 04:32:14;;;;;;;54.85;32.15;;;38.70;2201.60;;;;;;4898300;29;20055;-85
2022/03/20 04:34:41;;;;;;;43.00;25.48;;;38.80;2201.60;;;;;;4899827;29;20067;-80
2022/03/20 04:37:09;;;;;;;85.47;39.47;;;39.00;2201.60;;;;;;4899613;29;20024;-79
2022/03/20 04:39:36;;;;;;;69.75;35.55;;;39.00;2201.60;;;;;;4899858;29;20032;-80
2022/03/20 04:42:03;;;;;;;47.75;26.65;;;39.00;2201.60;;;;;;4901209;29;20118;-80
2022/03/20 04:44:30;;;;;;;51.33;25.48;;;64.00;2201.60;;;;;;4902617;29;20017;-77
2022/03/20 04:46:56;;;;;;;48.42;27.90;;;39.20;2201.60;;;;;;4888839;29;20025;-80
2022/03/20 04:58:29;;;;;;;44.90;27.13;;;39.20;2201.60;;;;;;4928291;29;20055;-77
2022/03/20 05:00:24;;;;;;;75.95;38.70;;;64.00;2201.60;;;;;;4931084;29;20030;-78
2022/03/20 05:02:50;;;;;;;76.88;40.78;;;38.90;2201.60;;;;;;4911497;29;20088;-78
2022/03/20 05:05:18;;;;;;;60.50;31.67;;;39.30;2201.60;;;;;;4913250;29;20020;-79
2022/03/20 05:07:44;;;;;;;57.40;31.45;;;64.10;2201.60;;;;;;4914520;29;20549;-79
2022/03/20 05:15:40;;;;;;;70.63;35.35;;;39.20;2201.60;;;;;;4924559;29;20509;-79
2022/03/20 05:18:09;;;;;;;45.42;28.45;;;39.00;2201.60;;;;;;4909505;29;20381;-79
2022/03/20 05:20:36;;;;;;;51.70;29.85;;;38.80;2201.60;;;;;;4911161;29;20024;-78
2022/03/20 05:23:05;;;;;;;60.45;35.63;;;38.70;2201.60;;;;;;4927544;29;20026;-80
2022/03/20 05:25:31;;;;;;;66.72;37.75;;;38.90;2201.60;;;;;;4912192;29;20030;-78
2022/03/20 05:27:59;;;;;;;75.60;39.78;;;39.20;2201.60;;;;;;4911506;29;20060;-78
2022/03/20 05:30:26;;;;;;;61.45;35.00;;;39.10;2201.60;;;;;;4912241;29;20027;-80
2022/03/20 05:32:52;;;;;;;55.28;31.58;;;39.20;2201.60;;;;;;4911761;29;20055;-78
2022/03/20 05:35:18;;;;;;;57.40;32.53;;;39.20;2201.60;;;;;;4914168;29;20020;-79
2022/03/20 05:37:47;;;;;;;54.33;32.92;;;39.00;2201.60;;;;;;4929710;29;20020;-79
2022/03/20 05:40:15;;;;;;;71.13;39.60;;;64.60;2201.60;;;;;;4909376;29;20035;-79
2022/03/20 05:42:42;;;;;;;66.80;32.75;;;39.10;2201.60;;;;;;4927744;29;20031;-79
2022/03/20 05:45:11;;;;;;;63.17;34.63;;;39.30;2201.60;;;;;;4913559;29;20024;-78
2022/03/20 05:47:39;;;;;;;55.00;31.42;;;39.10;2201.60;;;;;;4896581;29;20039;-79
2022/03/20 05:50:08;;;;;;;55.58;30.92;;;39.10;2201.60;;;;;;4894667;29;20044;-79
2022/03/20 05:52:35;;;;;;;57.20;33.25;;;38.90;2201.60;;;;;;4913527;29;20064;-78
2022/03/20 05:55:08;;;;;;;46.08;29.05;;;38.70;2201.60;;;;;;4901084;29;20498;-78
2022/03/20 06:00:28;;;;;;;54.35;32.78;;;39.00;2201.60;;;;;;4920900;29;20035;-79
2022/03/20 06:02:56;;;;;;;49.35;28.30;;;39.00;2201.60;;;;;;4916634;29;20028;-78
2022/03/20 06:05:25;;;;;;;64.57;35.50;;;39.00;2201.60;;;;;;4900275;29;20053;-78
2022/03/20 06:07:52;;;;;;;70.68;38.83;;;39.00;2201.60;;;;;;4900512;29;20378;-79
2022/03/20 06:10:20;;;;;;;74.03;40.95;;;38.90;2201.60;;;;;;4898965;29;20059;-79
2022/03/20 06:12:48;;;;;;;75.78;44.05;;;38.70;2201.60;;;;;;4917300;29;20035;-78
2022/03/20 06:15:14;;;;;;;82.80;46.92;;;38.40;2201.60;;;;;;4908144;29;20028;-79
2022/03/20 06:17:44;;;;;;;61.65;38.25;;;38.50;2201.60;;;;;;4905550;29;20035;-80
2022/03/20 06:20:12;;;;;;;61.88;37.85;;;38.40;2201.60;;;;;;4886872;29;20444;-80
2022/03/20 06:22:38;;;;;;;62.65;39.75;;;13.50;2201.60;;;;;;4900594;29;20374;-82
2022/03/20 06:25:08;;;;;;;45.45;27.88;;;13.50;2201.60;;;;;;4900711;29;20024;-82
2022/03/20 06:27:47;;;;;;;41.80;25.00;;;13.30;2201.60;;;;;;4901017;29;20036;-82
2022/03/20 06:30:16;;;;;;;39.72;24.98;;;13.50;2201.60;;;;;;4923715;29;20023;-83
2022/03/20 06:32:45;;;;;;;36.67;24.58;;;13.40;2201.60;;;;;;4914099;29;20036;-81
2022/03/20 06:35:21;;;;;;;38.90;24.35;;;13.30;2201.60;;;;;;4910102;29;20051;-78
2022/03/20 06:37:52;;;;;;;43.50;26.33;;;13.10;2201.60;;;;;;4922687;29;20028;-81
2022/03/20 06:40:18;;;;;;;43.05;27.60;;;13.00;2201.60;;;;;;4900969;29;20020;-83
2022/03/20 06:42:45;;;;;;;47.83;29.13;;;12.90;2201.60;;;;;;4901221;29;20031;-83
2022/03/20 06:45:12;;;;;;;50.70;29.20;;;0.00;2201.60;;;;;;4900558;29;20017;-82
2022/03/20 06:47:40;;;;;;;47.67;29.75;;;0.30;2201.60;;;;;;4900536;29;20403;-81
2022/03/20 06:50:07;;;;;;;56.40;32.28;;;0.50;2201.60;;;;;;4900686;29;20470;-83
2022/03/20 06:52:34;;;;;;;54.88;35.28;;;0.50;2201.60;;;;;;4900420;29;20063;-83
2022/03/20 06:55:02;;;;;;;66.85;42.63;;;0.60;2201.60;;;;;;4884984;29;20478;-84
2022/03/20 06:57:30;;;;;;;62.17;35.38;;;0.70;2201.60;;;;;;4903590;29;20061;-81
2022/03/20 06:59:58;;;;;;;44.45;26.30;;;0.90;2201.60;;;;;;4904428;29;20022;-84
2022/03/20 07:02:24;;;;;;;46.58;27.98;;;0.90;2201.60;;;;;;4904623;29;20053;-84
2022/03/20 07:04:51;;;;;;;53.33;32.67;;;0.90;2201.60;;;;;;4904103;29;20111;-83
2022/03/20 07:07:22;;;;;;;57.17;32.50;;;25.60;2201.60;;;;;;4905430;29;20131;-82
2022/03/20 07:09:48;;;;;;;54.05;31.33;;;25.80;2201.60;;;;;;4905957;29;20111;-84
2022/03/20 07:12:14;;;;;;;48.60;30.25;;;26.40;2201.60;;;;;;4904596;29;20056;-83
2022/03/20 07:14:44;;;;;;;97.65;58.13;;;26.20;2201.60;;;;;;4904900;29;20031;-85
2022/03/20 07:17:12;;;;;;;96.50;63.47;;;26.40;2201.60;;;;;;4904125;29;20036;-83
2022/03/20 07:19:39;;;;;;;84.50;55.17;;;26.40;2201.60;;;;;;4903880;29;20032;-82
2022/03/20 07:22:06;;;;;;;51.90;28.33;;;51.30;2227.20;;;;;;4904171;29;20071;-84
2022/03/20 07:24:40;;;;;;;46.78;30.45;;;51.40;2227.20;;;;;;4904321;29;20474;-85
2022/03/20 07:29:54;;;;;;;90.85;55.15;;;51.90;2227.20;;;;;;4921116;29;20075;-85
2022/03/20 07:32:20;;;;;;;50.63;29.98;;;51.70;2201.60;;;;;;4903873;29;20079;-83
2022/03/20 07:34:53;;;;;;;88.95;50.88;;;51.80;2176.00;;;;;;4903722;29;20031;-85
2022/03/20 07:37:19;;;;;;;100.65;59.50;;;52.00;2150.40;;;;;;4903666;29;20490;-84
2022/03/20 07:39:50;;;;;;;35.75;22.80;;;76.80;2124.80;;;;;;4903421;29;20031;-84
2022/03/20 07:42:18;;;;;;;41.63;26.20;;;76.90;2022.40;;;;;;4904044;29;20028;-84
2022/03/20 07:44:44;;;;;;;53.33;36.55;;;77.10;1945.60;;;;;;4903813;29;20020;-84
2022/03/20 07:47:39;;;;;;;43.53;27.00;;;77.20;1996.80;;;;;;4903470;29;20020;-83
2022/03/20 07:50:11;;;;;;;45.22;28.83;;;77.40;1945.60;;;;;;4903364;29;20035;-83
2022/03/20 07:52:37;;;;;;;38.10;27.23;;;77.50;1945.60;;;;;;4903693;29;20083;-82
2022/03/20 07:55:04;;;;;;;21.15;13.88;;;77.60;1920.00;;;;;;4903397;29;20402;-85
2022/03/20 07:57:30;;;;;;;28.50;16.60;;;77.60;1894.40;;;;;;4903376;29;20028;-82
2022/03/20 07:59:56;;;;;;;24.80;15.77;;;102.40;1920.00;;;;;;4903577;29;20123;-85
2022/03/20 08:02:25;;;;;;;27.75;16.00;;;102.40;1945.60;;;;;;4903198;29;20120;-84
2022/03/20 08:04:54;;;;;;;37.53;22.60;;;102.40;1920.00;;;;;;4903705;29;20020;-83
2022/03/20 08:07:20;;;;;;;26.17;16.33;;;102.50;1920.00;;;;;;4903573;29;20024;-85
2022/03/20 08:09:46;;;;;;;21.58;13.73;;;102.60;1894.40;;;;;;4903439;29;20063;-88
2022/03/20 08:12:12;;;;;;;18.73;13.18;;;102.60;1792.00;;;;;;4903754;29;20071;-85
2022/03/20 08:18:47;;;;;;;;;;;;;;;;;;;;;
2022/03/20 08:21:51;;;;;;;;;;;;;;;;;;;;;
2022/03/20 08:27:53;;;;;;;24.40;13.43;;;103.20;1792.00;;;;;;4793322;29;20513;-85
2022/03/20 08:30:20;;;;;;;16.95;10.73;;;103.20;1766.40;;;;;;4827713;29;20116;-86
2022/03/20 08:32:49;;;;;;;13.55;8.00;;;128.00;1740.80;;;;;;4881222;29;20184;-82
2022/03/20 08:35:16;;;;;;;14.57;9.73;;;128.10;1715.20;;;;;;4902710;29;20028;-83
2022/03/20 08:37:44;;;;;;;27.13;18.80;;;128.10;1689.60;;;;;;4902692;29;20036;-84
2022/03/20 08:40:22;;;;;;;24.35;16.70;;;128.00;1689.60;;;;;;4902651;29;20111;-84
2022/03/20 08:42:54;;;;;;;13.18;8.63;;;128.10;1715.20;;;;;;4902959;29;20059;-83
2022/03/20 08:45:21;;;;;;;17.05;10.50;;;128.10;1715.20;;;;;;4902977;29;20039;-87
2022/03/20 08:47:48;;;;;;;14.80;9.82;;;128.40;1715.20;;;;;;4903058;29;20032;-83
2022/03/20 08:50:15;;;;;;;11.93;7.78;;;128.60;1689.60;;;;;;4902147;29;20020;-82
2022/03/20 08:52:45;;;;;;;12.07;8.65;;;128.70;1715.20;;;;;;4902474;29;20024;-82
2022/03/20 08:55:11;;;;;;;14.02;6.50;;;128.70;1689.60;;;;;;4902444;29;20020;-79
2022/03/20 08:57:42;;;;;;;13.68;9.40;;;153.80;1664.00;;;;;;4901980;29;20036;-81
2022/03/20 09:00:13;;;;;;;10.50;7.57;;;128.90;1638.40;;;;;;4902504;29;20020;-83
2022/03/20 09:02:41;;;;;;;12.73;7.13;;;128.90;1638.40;;;;;;4902304;29;20020;-83
2022/03/20 09:05:11;;;;;;;14.38;8.57;;;128.90;1664.00;;;;;;4902138;29;20106;-84
2022/03/20 09:07:40;;;;;;;15.02;9.63;;;153.60;1664.00;;;;;;4902091;29;20474;-83
2022/03/20 09:10:07;;;;;;;11.63;7.68;;;153.90;1689.60;;;;;;4902386;29;20031;-81
2022/03/20 09:12:40;;;;;;;9.77;6.78;;;153.80;1612.80;;;;;;4901905;29;20481;-81
2022/03/20 09:15:12;;;;;;;14.95;8.55;;;153.70;1638.40;;;;;;4902020;29;20446;-82
2022/03/20 09:20:33;;;;;;;15.45;8.40;;;153.80;1612.80;;;;;;4918776;29;20078;-82
2022/03/20 09:23:00;;;;;;;20.63;12.82;;;153.90;1612.80;;;;;;4902009;29;20092;-82
2022/03/20 09:25:26;;;;;;;19.90;14.48;;;154.00;1612.80;;;;;;4901611;29;20057;-80
2022/03/20 09:27:52;;;;;;;35.28;23.00;;;154.40;1612.80;;;;;;4901906;29;20435;-81
2022/03/20 09:30:22;;;;;;;17.17;10.07;;;154.20;1587.20;;;;;;4901632;29;20058;-78
2022/03/20 09:32:48;;;;;;;22.48;18.23;;;154.20;1587.20;;;;;;4918199;29;20024;-82
2022/03/20 09:35:15;;;;;;;28.48;25.38;;;154.40;1612.80;;;;;;4901700;29;20062;-82
2022/03/20 09:37:41;;;;;;;17.75;14.07;;;154.50;1587.20;;;;;;4901318;29;20482;-81
2022/03/20 09:43:24;;;;;;;22.83;11.82;;;179.30;1612.80;;;;;;4918093;29;20152;-81
2022/03/20 09:45:52;;;;;;;15.98;8.68;;;179.40;1612.80;;;;;;4900910;29;20048;-82
2022/03/20 09:48:19;;;;;;;20.27;10.57;;;179.40;1561.60;;;;;;4901039;29;20024;-80
2022/03/20 09:50:47;;;;;;;17.50;10.52;;;179.40;1561.60;;;;;;4900945;29;20513;-79
2022/03/20 09:53:15;;;;;;;19.17;13.73;;;179.60;1561.60;;;;;;4918069;29;20028;-80
2022/03/20 09:55:45;;;;;;;19.17;12.55;;;179.50;1561.60;;;;;;4925705;29;20072;-81
2022/03/20 09:58:11;;;;;;;19.75;13.50;;;179.70;1561.60;;;;;;4910438;29;20522;-78
2022/03/20 10:00:37;;;;;;;17.70;13.02;;;179.90;1587.20;;;;;;4918685;29;20099;-77
2022/03/20 10:03:19;;;;;;;15.30;11.57;;;179.90;1587.20;;;;;;4901140;29;20023;-78
2022/03/20 10:06:05;;;;;;;18.20;11.00;;;180.10;1561.60;;;;;;4918101;29;20107;-79
2022/03/20 10:08:31;;;;;;;14.25;9.10;;;204.80;1561.60;;;;;;4900246;29;20479;-81
2022/03/20 10:11:24;;;;;;;16.05;10.05;;;204.90;1536.00;;;;;;4917579;29;20035;-81
2022/03/20 10:14:18;;;;;;;18.25;12.68;;;204.90;1510.40;;;;;;4896162;29;20509;-80
2022/03/20 10:17:13;;;;;;;19.38;12.95;;;205.00;1510.40;;;;;;4901083;29;20130;-79
2022/03/20 10:19:39;;;;;;;26.38;15.10;;;205.20;1510.40;;;;;;4900632;29;20024;-83
2022/03/20 10:22:11;;;;;;;15.73;8.85;;;205.30;1510.40;;;;;;4900308;29;20028;-79
2022/03/20 10:24:39;;;;;;;13.65;8.35;;;205.30;2201.60;;;;;;4900952;29;20118;-82
2022/03/20 10:27:08;;;;;;;19.83;10.98;;;205.70;1459.20;;;;;;4900887;29;20352;-80
2022/03/20 10:29:36;;;;;;;21.15;11.55;;;230.40;1459.20;;;;;;4899869;29;20028;-80
2022/03/20 10:32:07;;;;;;;21.65;12.10;;;230.60;1433.60;;;;;;4899695;29;20075;-78
2022/03/20 10:34:47;;;;;;;23.67;14.48;;;230.50;1433.60;;;;;;4900007;29;20028;-79
2022/03/20 10:37:13;;;;;;;19.40;11.55;;;205.70;1484.80;;;;;;4900467;29;20028;-76
2022/03/20 10:39:42;;;;;;;25.98;13.40;;;205.60;1484.80;;;;;;4917350;29;20036;-78
2022/03/20 10:42:12;;;;;;;14.30;9.68;;;205.70;1459.20;;;;;;4900076;29;20063;-78
2022/03/20 10:44:38;;;;;;;31.58;21.17;;;230.50;1459.20;;;;;;4900409;29;20028;-77
2022/03/20 10:47:16;;;;;;;21.38;12.48;;;230.50;1433.60;;;;;;4900316;29;20375;-78
2022/03/20 10:49:53;;;;;;;26.90;16.75;;;230.70;1433.60;;;;;;4900168;29;20360;-79
2022/03/20 10:52:20;;;;;;;34.75;23.27;;;230.70;1433.60;;;;;;4917490;29;20081;-80
2022/03/20 10:54:51;;;;;;;24.45;13.45;;;231.00;1408.00;;;;;;4900247;29;20024;-78
2022/03/20 10:57:39;;;;;;;33.28;22.30;;;231.10;1408.00;;;;;;4899949;29;20020;-80
2022/03/20 11:00:16;;;;;;;15.70;10.95;;;256.10;1382.40;;;;;;4900269;29;20043;-79
2022/03/20 11:03:04;;;;;;;12.85;8.85;;;256.10;1382.40;;;;;;4900045;29;20032;-81
2022/03/20 11:05:37;;;;;;;22.55;15.38;;;256.10;1382.40;;;;;;4900134;29;20082;-80
2022/03/20 11:08:03;;;;;;;17.88;12.27;;;256.40;1356.80;;;;;;4900206;29;20032;-81
2022/03/20 11:10:37;;;;;;;22.00;12.73;;;256.70;1331.20;;;;;;4899696;29;20059;-79
2022/03/20 11:13:14;;;;;;;16.83;10.82;;;256.80;1356.80;;;;;;4899758;29;20451;-79
2022/03/20 11:15:48;;;;;;;19.52;12.55;;;256.90;1331.20;;;;;;4917030;29;20470;-79
2022/03/20 11:18:15;;;;;;;17.50;12.05;;;281.70;1331.20;;;;;;4899629;29;20038;-81
2022/03/20 11:21:19;;;;;;;15.73;9.48;;;282.00;1305.60;;;;;;4899903;29;20024;-79
2022/03/20 11:23:47;;;;;;;14.52;10.70;;;282.30;1280.00;;;;;;4899663;29;20096;-76
2022/03/20 11:29:57;;;;;;;15.90;9.60;;;307.30;1280.00;;;;;;4857884;29;20480;-78
2022/03/20 11:32:41;;;;;;;15.60;11.60;;;307.30;1280.00;;;;;;4842984;29;20030;-77
2022/03/20 11:35:53;;;;;;;18.48;13.30;;;307.80;1280.00;;;;;;4879605;29;20033;-77
2022/03/20 11:39:20;;;;;;;15.70;11.50;;;308.10;1280.00;;;;;;4899296;29;20553;-76
2022/03/20 11:42:31;;;;;;;17.90;9.30;;;333.00;1305.60;;;;;;4869196;29;20131;-76
2022/03/20 11:45:03;;;;;;;12.57;7.90;;;333.30;1280.00;;;;;;4900828;29;20155;-78
2022/03/20 11:47:31;;;;;;;11.75;6.85;;;333.40;1254.40;;;;;;4903065;29;20048;-79
2022/03/20 11:50:14;;;;;;;20.20;13.68;;;333.60;1254.40;;;;;;4903339;29;20366;-77
2022/03/20 11:53:10;;;;;;;24.38;14.32;;;358.50;1228.80;;;;;;4903055;29;20143;-77
2022/03/20 11:55:58;;;;;;;15.73;10.38;;;358.50;1280.00;;;;;;4920115;29;20016;-77
2022/03/20 11:58:27;;;;;;;16.83;12.05;;;358.50;1203.20;;;;;;4903142;29;20028;-77
2022/03/20 12:01:15;;;;;;;16.45;9.13;;;358.70;1254.40;;;;;;4902826;29;20034;-77
2022/03/20 12:04:13;;;;;;;24.83;15.35;;;358.60;1203.20;;;;;;4902255;29;20036;-77
2022/03/20 12:07:23;;;;;;;23.50;15.98;;;358.80;1254.40;;;;;;4902756;29;20032;-77
2022/03/20 12:10:04;;;;;;;21.98;14.93;;;358.90;1228.80;;;;;;4868292;29;20471;-77
2022/03/20 12:13:07;;;;;;;25.20;15.65;;;359.00;1254.40;;;;;;4902799;29;20407;-79
2022/03/20 12:15:44;;;;;;;18.30;11.35;;;359.20;1228.80;;;;;;4902848;29;20016;-78
2022/03/20 12:18:11;;;;;;;16.60;10.05;;;359.30;1254.40;;;;;;4902570;29;20036;-77
2022/03/20 12:20:48;;;;;;;36.10;23.00;;;359.30;1228.80;;;;;;4919451;29;20359;-78
2022/03/20 12:23:29;;;;;;;41.47;25.30;;;384.10;1203.20;;;;;;4902459;29;20362;-78
2022/03/20 12:26:34;;;;;;;36.25;24.00;;;384.10;1203.20;;;;;;4902518;29;20024;-79
2022/03/20 12:29:32;;;;;;;18.42;12.07;;;384.20;1228.80;;;;;;4902597;29;20031;-78
2022/03/20 12:32:16;;;;;;;19.23;10.43;;;384.00;1203.20;;;;;;4919750;29;20032;-79
2022/03/20 12:35:03;;;;;;;34.95;17.83;;;384.30;1203.20;;;;;;4902337;29;20363;-79
2022/03/20 12:37:37;;;;;;;18.00;12.32;;;384.40;1152.00;;;;;;4888704;29;20463;-78
2022/03/20 12:40:03;;;;;;;16.88;11.75;;;384.50;1152.00;;;;;;4902390;29;20035;-80
2022/03/20 12:42:33;;;;;;;15.88;11.00;;;384.60;1152.00;;;;;;4902617;29;20375;-79
2022/03/20 12:45:00;;;;;;;23.17;13.43;;;384.40;1152.00;;;;;;4942361;29;20073;-78
2022/03/20 12:47:27;;;;;;;25.30;16.33;;;384.70;1177.60;;;;;;4902750;29;20031;-79
2022/03/20 12:50:04;;;;;;;22.15;14.25;;;384.80;1177.60;;;;;;4902752;29;20024;-79
2022/03/20 12:52:32;;;;;;;30.00;19.17;;;384.80;1152.00;;;;;;4901946;29;20032;-78
2022/03/20 12:55:03;;;;;;;14.57;9.68;;;384.90;1152.00;;;;;;4918311;29;20446;-78
2022/03/20 12:57:43;;;;;;;13.45;9.65;;;409.60;1152.00;;;;;;4919084;29;20024;-79
2022/03/20 13:00:25;;;;;;;24.95;18.02;;;409.70;1152.00;;;;;;4901706;29;20028;-78
2022/03/20 13:03:06;;;;;;;18.92;13.02;;;409.80;1177.60;;;;;;4919096;29;20477;-80
2022/03/20 13:05:58;;;;;;;23.75;16.25;;;409.70;1177.60;;;;;;4901853;29;20031;-78